Time;durP1;ratioP1;P1;durP2;ratioP2;P2;SDS_P1;SDS_P2;PMS_P1;PMS_P2;Temp;Humidity;BMP_temperature;BMP_pressure;BME280_temperature;BME280_humidity;BME280_pressure;Samples;Min_cycle;Max_cycle;Signal;HPM_P1;HPM_P2
2021/06/02 00:00:19;;;;;;;;;;;;;;;-142.75;59.79;77141.19;5035908;28;20028;-75
2021/06/02 00:02:47;;;;;;;9.10;6.07;;;;;;;-142.75;59.48;77133.31;5032755;28;20254;-75
2021/06/02 00:05:14;;;;;;;7.78;5.63;;;;;;;-142.75;59.65;77133.31;5037832;28;20029;-75
2021/06/02 00:07:43;;;;;;;9.88;6.10;;;;;;;-142.75;57.45;77117.56;5036437;28;20029;-75
2021/06/02 00:10:11;;;;;;;8.15;6.30;;;;;;;-142.75;59.06;77121.50;5047903;28;20375;-75
2021/06/02 00:12:36;;;;;;;11.02;6.30;;;;;;;-142.75;59.17;77127.41;5037539;28;20027;-73
2021/06/02 00:15:05;;;;;;;10.60;6.13;;;;;;;-142.75;57.97;77125.44;5034680;28;20021;-75
2021/06/02 00:17:31;;;;;;;8.82;5.75;;;;;;;-142.75;56.03;77109.69;5030093;28;20108;-75
2021/06/02 00:19:56;;;;;;;8.95;5.93;;;;;;;-142.75;56.53;77103.78;5045111;28;20159;-75
2021/06/02 00:22:22;;;;;;;7.63;5.30;;;;;;;-142.75;54.85;77080.16;5014528;28;20486;-75
2021/06/02 00:24:48;;;;;;;;;;;;;;;-142.75;54.10;77068.34;5044552;28;20108;-75
2021/06/02 00:27:14;;;;;;;8.15;6.13;;;;;;;-142.75;57.68;77074.25;5033734;28;20396;-75
2021/06/02 00:29:43;;;;;;;9.85;6.25;;;;;;;-142.75;58.45;77095.91;5036432;28;20103;-76
2021/06/02 00:32:09;;;;;;;9.32;6.80;;;;;;;-142.75;58.40;77117.56;5040557;28;20512;-75
2021/06/02 00:34:35;;;;;;;11.55;5.90;;;;;;;-142.75;59.54;77141.19;5037942;28;20100;-75
2021/06/02 00:37:04;;;;;;;7.97;6.40;;;;;;;-142.75;59.76;77141.19;5040819;28;20060;-73
2021/06/02 00:39:30;;;;;;;11.82;6.63;;;;;;;-142.75;59.59;77154.97;5025462;28;20040;-74
2021/06/02 00:41:56;;;;;;;9.07;6.50;;;;;;;-142.75;59.09;77166.78;5044495;28;20387;-75
2021/06/02 00:44:22;;;;;;;9.20;6.35;;;;;;;-142.75;58.43;77160.88;5043018;28;20032;-74
2021/06/02 00:46:49;;;;;;;10.85;6.07;;;;;;;-142.75;59.69;77164.81;5036082;28;20028;-74
2021/06/02 00:49:23;;;;;;;10.40;6.45;;;;;;;-142.75;60.35;77172.69;5049663;28;20071;-76
2021/06/02 00:51:59;;;;;;;10.75;6.78;;;;;;;-142.75;60.35;77178.59;5045790;28;20021;-74
2021/06/02 00:54:26;;;;;;;10.63;7.37;;;;;;;-142.75;60.22;77186.47;5042224;28;20022;-75
2021/06/02 00:56:54;;;;;;;11.18;7.03;;;;;;;-142.75;60.78;77196.31;5047684;28;20557;-75
2021/06/02 00:59:34;;;;;;;9.98;6.57;;;;;;;-142.75;61.34;77198.28;5042783;28;20021;-75
2021/06/02 01:02:00;;;;;;;10.52;6.50;;;;;;;-142.75;61.12;77206.16;5035637;28;20026;-75
2021/06/02 01:04:26;;;;;;;9.20;6.53;;;;;;;-142.75;61.27;77210.09;5038198;28;20017;-75
2021/06/02 01:06:53;;;;;;;10.45;7.07;;;;;;;-142.75;61.57;77212.06;5037266;28;20482;-75
2021/06/02 01:09:21;;;;;;;13.77;6.57;;;;;;;-142.75;61.60;77219.94;5038733;28;20108;-75
2021/06/02 01:11:48;;;;;;;8.77;6.65;;;;;;;-142.75;61.46;77221.91;5030586;28;20032;-75
2021/06/02 01:14:14;;;;;;;10.43;6.35;;;;;;;-142.75;60.96;77223.88;5048087;28;20352;-75
2021/06/02 01:16:40;;;;;;;10.23;6.97;;;;;;;-142.75;61.53;77208.13;5031556;28;20017;-75
2021/06/02 01:19:09;;;;;;;9.00;7.07;;;;;;;-142.75;62.08;77216.00;5047177;28;20024;-76
2021/06/02 01:21:40;;;;;;;11.45;6.78;;;;;;;-142.75;62.85;77216.00;5041977;28;20032;-75
2021/06/02 01:24:06;;;;;;;9.40;6.25;;;;;;;-142.75;62.78;77219.94;5037530;28;20048;-75
2021/06/02 01:26:31;;;;;;;11.48;7.00;;;;;;;-142.75;62.74;77237.66;5015683;28;20486;-75
2021/06/02 01:28:57;;;;;;;11.50;6.45;;;;;;;-142.75;62.65;77239.63;5033211;28;20040;-74
2021/06/02 01:31:55;;;;;;;9.57;6.72;;;;;;;-142.75;62.83;77243.56;5037713;28;20032;-75
2021/06/02 01:34:42;;;;;;;7.13;5.70;;;;;;;-142.75;62.60;77257.34;5041610;28;20467;-75
2021/06/02 01:37:14;;;;;;;10.50;6.53;;;;;;;-142.75;63.18;77253.41;5033444;28;20032;-75
2021/06/02 01:40:07;;;;;;;8.98;6.03;;;;;;;-142.75;62.55;77261.28;5051693;28;20095;-75
2021/06/02 01:42:36;;;;;;;9.25;5.97;;;;;;;-142.75;62.82;77259.31;5035370;28;20013;-75
2021/06/02 01:45:43;;;;;;;9.75;6.80;;;;;;;-142.75;62.86;77269.16;5034748;28;20115;-75
2021/06/02 01:48:34;;;;;;;11.23;6.18;;;;;;;-142.75;62.77;77279.00;5035110;22;20037;-75
2021/06/02 01:51:30;;;;;;;10.52;6.53;;;;;;;-142.75;63.09;77292.78;5012210;28;20036;-74
2021/06/02 01:54:34;;;;;;;8.80;6.05;;;;;;;-142.75;63.95;77275.06;5014794;28;20471;-75
2021/06/02 01:57:24;;;;;;;13.55;6.65;;;;;;;-142.75;63.76;77275.06;5032406;28;20025;-74
2021/06/02 01:59:53;;;;;;;10.07;6.15;;;;;;;-142.75;63.41;77290.81;5015297;28;20500;-75
2021/06/02 02:02:41;;;;;;;8.77;6.13;;;;;;;-142.75;63.45;77306.56;5013151;28;20026;-75
2021/06/02 02:05:48;;;;;;;8.55;6.30;;;;;;;-142.75;63.79;77310.50;5013369;28;20032;-74
2021/06/02 02:08:40;;;;;;;10.23;6.50;;;;;;;-142.75;63.70;77314.44;5013141;28;20125;-75
2021/06/02 02:11:19;;;;;;;9.88;6.80;;;;;;;-142.75;64.03;77312.47;5012968;28;20076;-74
2021/06/02 02:14:03;;;;;;;10.32;6.93;;;;;;;-142.75;64.81;77312.47;4995359;28;20028;-75
2021/06/02 02:16:41;;;;;;;11.05;7.05;;;;;;;-142.75;64.42;77320.34;5012287;28;20519;-74
2021/06/02 02:19:13;;;;;;;10.65;6.57;;;;;;;-142.75;64.60;77310.50;4995366;28;20072;-74
2021/06/02 02:22:07;;;;;;;9.15;6.60;;;;;;;-142.75;64.10;77322.31;5012760;28;20021;-75
2021/06/02 02:25:08;;;;;;;8.93;6.55;;;;;;;-142.75;64.12;77322.31;4961517;28;20042;-74
2021/06/02 02:27:58;;;;;;;8.65;6.28;;;;;;;-142.75;64.19;77324.28;4932517;29;20031;-74
2021/06/02 02:30:34;;;;;;;9.85;6.35;;;;;;;-142.75;64.38;77328.22;4991805;28;20041;-74
2021/06/02 02:33:25;;;;;;;11.35;6.55;;;;;;;-142.75;64.10;77328.22;5012409;28;20052;-74
2021/06/02 02:36:11;;;;;;;8.07;6.47;;;;;;;-142.75;64.11;77334.13;5012921;28;20010;-74
2021/06/02 02:39:04;;;;;;;9.55;6.43;;;;;;;-142.75;63.79;77334.13;5012427;28;20030;-74
2021/06/02 02:41:48;;;;;;;10.32;7.80;;;;;;;-142.75;64.26;77312.47;5011677;28;20125;-74
2021/06/02 02:44:31;;;;;;;12.15;7.07;;;;;;;-142.75;64.36;77298.69;4994859;28;20030;-74
2021/06/02 02:47:21;;;;;;;10.30;7.57;;;;;;;-142.75;64.04;77302.63;4994097;28;20531;-73
2021/06/02 02:50:13;;;;;;;10.85;7.47;;;;;;;-142.75;64.29;77302.63;5012219;28;20503;-75
2021/06/02 02:52:41;;;;;;;14.90;7.35;;;;;;;-142.75;64.17;77310.50;5011808;28;20041;-75
2021/06/02 02:55:19;;;;;;;10.85;7.32;;;;;;;-142.75;64.68;77304.59;5012144;28;20476;-75
2021/06/02 02:57:59;;;;;;;11.27;8.00;;;;;;;-142.75;64.71;77316.41;5011829;28;20018;-75
2021/06/02 03:00:48;;;;;;;11.70;7.72;;;;;;;-142.75;64.50;77332.16;4994400;28;20029;-75
2021/06/02 03:03:31;;;;;;;11.48;7.47;;;;;;;-142.75;64.68;77338.06;5012017;28;20022;-74
2021/06/02 03:06:09;;;;;;;10.05;7.28;;;;;;;-142.75;64.69;77353.81;5012089;28;20044;-75
2021/06/02 03:08:59;;;;;;;11.50;7.75;;;;;;;-142.75;64.74;77361.69;5011835;28;20022;-74
2021/06/02 03:11:39;;;;;;;11.55;7.70;;;;;;;-142.75;64.94;77365.63;5011798;28;20467;-75
2021/06/02 03:14:15;;;;;;;11.27;7.80;;;;;;;-142.75;64.97;77367.59;4994369;28;20025;-74
2021/06/02 03:16:43;;;;;;;11.63;8.27;;;;;;;-142.75;65.44;77365.63;5011319;28;20489;-74
2021/06/02 03:19:12;;;;;;;12.15;8.18;;;;;;;-142.75;65.11;77367.59;5011735;28;20080;-74
2021/06/02 03:22:02;;;;;;;16.08;9.45;;;;;;;-142.75;65.90;77336.09;4994234;28;20120;-74
2021/06/02 03:24:49;;;;;;;12.68;8.18;;;;;;;-142.75;65.25;77324.28;4993743;28;20491;-75
2021/06/02 03:27:48;;;;;;;13.35;9.25;;;;;;;-142.75;65.39;77330.19;5030682;28;20056;-75
2021/06/02 03:30:27;;;;;;;13.38;9.32;;;;;;;-142.75;65.37;77334.13;5022078;28;20041;-74
2021/06/02 03:33:33;;;;;;;13.02;10.07;;;;;;;-142.75;65.21;77322.31;5029936;28;20406;-74
2021/06/02 03:36:05;;;;;;;13.45;9.48;;;;;;;-142.75;64.86;77338.06;5030719;28;20120;-74
2021/06/02 03:38:49;;;;;;;13.23;9.20;;;;;;;-142.75;65.03;77349.88;5030236;28;20025;-74
2021/06/02 03:41:20;;;;;;;12.70;8.77;;;;;;;-142.75;65.42;77343.97;5028731;28;20021;-74
2021/06/02 03:43:55;;;;;;;12.15;8.75;;;;;;;-142.75;65.78;77334.13;5015301;28;20052;-74
2021/06/02 03:46:44;;;;;;;12.27;9.18;;;;;;;-142.75;65.46;77322.31;5023877;28;20029;-74
2021/06/02 03:49:47;;;;;;;16.98;10.38;;;;;;;-142.75;65.21;77322.31;5013082;28;20025;-76
2021/06/02 03:53:00;;;;;;;13.32;9.25;;;;;;;-142.75;65.75;77322.31;5031093;28;20048;-75
2021/06/02 03:55:33;;;;;;;11.32;8.60;;;;;;;-142.75;65.32;77336.09;5030516;28;20028;-74
2021/06/02 03:58:28;;;;;;;13.68;8.45;;;;;;;-142.75;65.48;77349.88;5013127;28;20033;-75
2021/06/02 04:01:14;;;;;;;13.68;8.85;;;;;;;-142.75;65.83;77349.88;5016506;28;20029;-75
2021/06/02 04:04:04;;;;;;;13.75;8.95;;;;;;;-142.75;65.79;77340.03;5031213;28;20036;-75
2021/06/02 04:07:00;;;;;;;13.68;9.30;;;;;;;-142.75;65.68;77334.13;5013299;28;20083;-74
2021/06/02 04:09:27;;;;;;;15.48;9.82;;;;;;;-142.75;65.56;77322.31;5030890;28;20029;-75
2021/06/02 04:12:43;;;;;;;14.07;10.32;;;;;;;-142.75;65.43;77326.25;5030770;28;20021;-75
2021/06/02 04:15:11;;;;;;;15.13;9.00;;;;;;;-142.75;65.56;77322.31;4986804;28;20470;-75
2021/06/02 04:17:38;;;;;;;17.33;10.43;;;;;;;-142.75;65.76;77318.38;5030176;28;20021;-75
2021/06/02 04:20:05;;;;;;;18.40;11.77;;;;;;;-142.75;66.14;77282.94;5013666;28;20034;-75
2021/06/02 04:22:32;;;;;;;17.50;11.32;;;;;;;-142.75;65.87;77269.16;5031539;28;20397;-75
2021/06/02 04:25:01;;;;;;;19.00;11.98;;;;;;;-142.75;65.67;77249.47;5014672;28;20486;-74
2021/06/02 04:27:27;;;;;;;16.83;11.40;;;;;;;-142.75;64.72;77200.25;5031408;28;20013;-74
2021/06/02 04:30:05;;;;;;;19.48;12.57;;;;;;;-142.75;63.88;77168.75;5014288;28;20068;-74
2021/06/02 04:32:38;;;;;;;19.30;12.00;;;;;;;-142.75;63.81;77160.88;5031817;28;20032;-74
2021/06/02 04:35:09;;;;;;;17.48;11.52;;;;;;;-142.75;63.61;77145.13;5013883;28;20017;-74
2021/06/02 04:37:35;;;;;;;20.67;12.65;;;;;;;-142.75;63.38;77127.41;5031236;28;20021;-74
2021/06/02 04:40:06;;;;;;;18.90;12.38;;;;;;;-142.75;63.35;77109.69;5013536;28;20021;-74
2021/06/02 04:42:36;;;;;;;15.40;11.82;;;;;;;-142.75;63.52;77125.44;5031012;28;20014;-73
2021/06/02 04:45:05;;;;;;;15.48;10.32;;;;;;;-142.75;63.92;77143.16;5013733;28;20034;-75
2021/06/02 04:47:32;;;;;;;15.73;11.02;;;;;;;-142.75;64.78;77168.75;5030115;28;20026;-75
2021/06/02 04:50:23;;;;;;;15.70;10.23;;;;;;;-142.75;65.12;77186.47;5012975;28;20017;-75
2021/06/02 04:53:16;;;;;;;13.30;9.45;;;;;;;-142.75;65.19;77188.44;5030114;28;20025;-75
2021/06/02 04:56:18;;;;;;;14.00;10.68;;;;;;;-142.75;65.58;77180.56;5033923;28;20475;-75
2021/06/02 04:59:08;;;;;;;13.52;10.55;;;;;;;-142.75;65.76;77153.00;5036365;28;20080;-75
2021/06/02 05:02:08;;;;;;;16.85;10.63;;;;;;;-142.75;65.38;77143.16;5018159;28;20494;-75
2021/06/02 05:05:14;;;;;;;18.10;10.57;;;;;;;-142.75;65.37;77131.34;5034189;28;20064;-75
2021/06/02 05:08:17;;;;;;;16.75;10.80;;;;;;;-142.75;65.31;77119.53;5017188;28;20025;-75
2021/06/02 05:11:20;;;;;;;18.27;12.30;;;;;;;-142.75;65.28;77076.22;5034654;28;20021;-75
2021/06/02 05:14:37;;;;;;;19.13;12.10;;;;;;;-142.75;64.66;77052.59;4993154;28;20025;-75
2021/06/02 05:17:05;;;;;;;16.25;11.02;;;;;;;-142.75;64.45;77025.03;4989830;28;20033;-76
2021/06/02 05:22:14;;;;;;;25.35;13.60;;;;;;;-142.75;63.91;76964.00;5034306;28;20048;-75
2021/06/02 05:25:30;;;;;;;18.33;13.05;;;;;;;-142.75;62.45;76916.75;5034400;28;20398;-75
2021/06/02 05:27:58;;;;;;;17.70;11.85;;;;;;;-142.75;61.46;76873.44;5000584;28;20039;-74
2021/06/02 05:30:42;;;;;;;15.43;11.13;;;;;;;-142.75;61.51;76822.25;5016611;28;20033;-75
2021/06/02 05:33:29;;;;;;;22.58;11.27;;;;;;;-142.75;60.77;76775.03;5016555;28;20029;-75
2021/06/02 05:36:36;;;;;;;18.00;11.82;;;;;;;-142.75;58.75;76739.59;5016625;28;20025;-74
2021/06/02 05:39:31;;;;;;;16.58;11.43;;;;;;;-142.75;56.79;76698.25;5015702;28;21444;-74
2021/06/02 05:42:19;;;;;;;16.73;11.23;;;;;;;-142.75;56.86;76647.06;5033440;28;20048;-75
2021/06/02 05:44:57;;;;;;;16.08;12.02;;;;;;;-142.75;56.76;76593.91;5033319;28;20106;-74
2021/06/02 05:47:44;;;;;;;16.15;12.07;;;;;;;-142.75;55.76;76580.13;5033120;28;20021;-75
2021/06/02 05:50:30;;;;;;;14.85;11.98;;;;;;;-142.75;53.64;76572.25;5033212;28;20487;-75
2021/06/02 05:53:31;;;;;;;16.45;11.68;;;;;;;-142.75;52.63;76511.25;5034503;28;20022;-75
2021/06/02 05:56:42;;;;;;;16.08;11.70;;;;;;;-142.75;53.17;76471.88;5016525;28;20022;-75
2021/06/02 05:59:35;;;;;;;18.42;12.30;;;;;;;-142.75;50.99;76428.56;5033944;28;20036;-77
2021/06/02 06:02:26;;;;;;;17.35;11.32;;;;;;;-142.75;51.40;76401.00;5034254;28;20021;-75
2021/06/02 06:05:25;;;;;;;16.30;11.60;;;;;;;-142.75;51.97;76347.84;5033809;28;20018;-75
2021/06/02 06:08:02;;;;;;;16.83;12.38;;;;;;;-142.75;49.10;76259.28;5033700;28;20025;-75
2021/06/02 06:10:54;;;;;;;17.52;11.85;;;;;;;-142.75;48.37;76204.16;5016384;28;20048;-75
2021/06/02 06:13:25;;;;;;;17.15;10.82;;;;;;;-142.75;48.88;76204.16;5033778;28;20390;-75
2021/06/02 06:16:38;;;;;;;15.40;11.45;;;;;;;-142.75;47.60;76149.06;5016331;28;20079;-75
2021/06/02 06:20:02;;;;;;;17.00;11.43;;;;;;;-142.75;47.93;76125.44;5016523;28;20048;-75
2021/06/02 06:22:40;;;;;;;15.05;11.27;;;;;;;-142.75;46.91;76129.38;4945864;29;20526;-75
2021/06/02 06:25:14;;;;;;;15.93;11.60;;;;;;;-142.75;47.00;76068.38;5034455;28;20029;-76
2021/06/02 06:27:44;;;;;;;17.52;11.05;;;;;;;-142.75;46.35;76009.31;4999117;28;20030;-76
2021/06/02 06:30:13;;;;;;;18.33;11.73;;;;;;;-142.75;44.98;75962.09;4996651;28;20112;-75
2021/06/02 06:32:41;;;;;;;15.82;11.43;;;;;;;-142.75;45.30;75914.84;4996853;28;20463;-75
2021/06/02 06:35:09;;;;;;;15.95;11.63;;;;;;;-142.75;43.55;75906.97;4997134;28;20383;-76
2021/06/02 06:37:46;;;;;;;15.63;11.45;;;;;;;-142.75;44.05;75948.31;4996491;28;20026;-75
2021/06/02 06:40:22;;;;;;;16.92;11.68;;;;;;;-142.75;44.04;76032.94;4996192;28;20080;-76
2021/06/02 06:42:53;;;;;;;17.15;12.75;;;;;;;-142.75;45.76;76058.53;4995868;28;20056;-75
2021/06/02 06:45:28;;;;;;;15.77;11.70;;;;;;;-142.75;44.16;76121.50;5013384;28;20384;-74
2021/06/02 06:47:55;;;;;;;19.10;12.23;;;;;;;-142.75;45.16;76131.34;4995509;28;20029;-75
2021/06/02 06:50:21;;;;;;;18.42;12.38;;;;;;;-142.75;44.83;76113.63;5013308;28;20109;-75
2021/06/02 06:52:53;;;;;;;18.38;11.65;;;;;;;-142.75;44.70;76121.50;4995879;28;20030;-75
2021/06/02 06:55:21;;;;;;;18.85;13.07;;;;;;;-142.75;45.28;76052.63;5010912;28;21447;-74
2021/06/02 06:57:47;;;;;;;17.10;11.20;;;;;;;-142.75;42.96;75885.31;5015925;28;20059;-75
2021/06/02 07:00:14;;;;;;;29.23;11.48;;;;;;;-142.75;41.63;75802.66;5032973;28;20053;-75
2021/06/02 07:02:42;;;;;;;15.18;11.52;;;;;;;-142.75;42.77;75928.63;5032946;28;20029;-75
2021/06/02 07:05:09;;;;;;;16.67;11.63;;;;;;;-142.75;41.97;75779.03;5015736;28;20048;-76
2021/06/02 07:07:36;;;;;;;17.25;11.32;;;;;;;-142.75;42.42;75723.94;5034396;28;20047;-75
2021/06/02 07:10:04;;;;;;;16.90;11.25;;;;;;;-142.75;40.31;75676.69;5016469;28;20029;-76
2021/06/02 07:12:31;;;;;;;15.02;11.13;;;;;;;-142.75;40.57;75653.09;5034185;28;20020;-76
2021/06/02 07:14:57;;;;;;;13.38;11.43;;;;;;;-142.75;40.55;75743.63;5014772;28;20013;-76
2021/06/02 07:17:24;;;;;;;17.38;11.30;;;;;;;-142.75;40.22;75716.06;5031353;28;20140;-76
2021/06/02 07:19:57;;;;;;;15.75;11.18;;;;;;;-142.75;40.73;75550.75;5032775;28;20037;-75
2021/06/02 07:22:23;;;;;;;18.65;12.27;;;;;;;-142.75;37.21;75566.50;5014607;28;20029;-73
2021/06/02 07:24:58;;;;;;;14.45;11.63;;;;;;;-142.75;39.00;75660.97;5031406;28;20033;-72
2021/06/02 07:27:25;;;;;;;19.92;11.88;;;;;;;-142.75;38.67;75613.72;5032017;28;20022;-72
2021/06/02 07:29:51;;;;;;;16.67;11.45;;;;;;;-142.75;39.12;75688.50;5013864;28;20025;-73
2021/06/02 07:32:17;;;;;;;15.63;11.60;;;;;;;-142.75;39.91;75775.09;5030985;28;20489;-72
2021/06/02 07:34:42;;;;;;;16.98;12.32;;;;;;;-142.75;40.75;75714.09;5031845;28;20478;-71
2021/06/02 07:37:08;;;;;;;18.95;11.25;;;;;;;-142.75;39.07;75586.19;5032578;28;20087;-72
2021/06/02 07:39:33;;;;;;;16.23;11.90;;;;;;;-142.75;39.35;75637.34;5031891;28;20071;-72
2021/06/02 07:41:58;;;;;;;16.75;11.85;;;;;;;-142.75;38.38;75564.53;5013252;28;20037;-72
2021/06/02 07:44:23;;;;;;;16.75;11.15;;;;;;;-142.75;37.91;75531.06;5031195;28;20029;-73
2021/06/02 07:46:49;;;;;;;16.35;11.00;;;;;;;-142.75;38.32;75365.75;5014179;28;20027;-73
2021/06/02 07:49:14;;;;;;;14.77;11.52;;;;;;;-142.75;35.05;75291.00;5032692;28;20396;-72
2021/06/02 07:51:40;;;;;;;15.88;11.48;;;;;;;-142.75;37.18;75306.72;5013909;28;20027;-73
2021/06/02 07:54:06;;;;;;;16.27;11.40;;;;;;;-142.75;36.27;75204.41;5013530;28;20467;-73
2021/06/02 07:56:31;;;;;;;15.90;11.23;;;;;;;-142.75;36.28;75314.59;5013126;28;20047;-73
2021/06/02 07:58:57;;;;;;;16.40;10.95;;;;;;;-142.75;34.97;75235.88;5013435;28;20025;-71
2021/06/02 08:01:22;;;;;;;20.08;11.57;;;;;;;-142.75;35.33;75304.75;5013910;28;20467;-72
2021/06/02 08:03:47;;;;;;;16.17;11.15;;;;;;;-142.75;37.95;75440.53;5013947;28;20021;-72
2021/06/02 08:06:12;;;;;;;16.70;11.48;;;;;;;-142.75;36.75;75495.66;5030375;28;20026;-72
2021/06/02 08:08:38;;;;;;;18.65;11.85;;;;;;;-142.75;37.49;75499.59;5030873;28;20047;-73
2021/06/02 08:11:03;;;;;;;17.85;10.68;;;;;;;-142.75;37.02;75416.94;5012792;28;20105;-72
2021/06/02 08:13:29;;;;;;;15.02;10.93;;;;;;;-142.75;36.45;75273.28;5031073;28;20048;-73
2021/06/02 08:15:54;;;;;;;18.00;11.18;;;;;;;-142.75;33.62;75127.66;5013356;28;20022;-74
2021/06/02 08:18:19;;;;;;;16.98;11.70;;;;;;;-142.75;33.28;75058.78;5013267;28;20029;-72
2021/06/02 08:20:45;;;;;;;15.75;11.65;;;;;;;-142.75;33.62;75192.59;5013393;28;20104;-73
2021/06/02 08:23:10;;;;;;;15.43;11.18;;;;;;;-142.75;34.77;75342.16;5012471;28;20057;-73
2021/06/02 08:25:35;;;;;;;17.75;11.18;;;;;;;-142.75;36.31;75413.00;5029744;28;20056;-73
2021/06/02 08:28:01;;;;;;;16.50;9.68;;;;;;;-142.75;36.93;75229.97;5031954;28;20095;-73
2021/06/02 08:30:26;;;;;;;15.23;10.65;;;;;;;-142.75;33.91;75113.88;5030245;28;20536;-73
2021/06/02 08:32:52;;;;;;;15.98;10.30;;;;;;;-142.75;32.82;75009.59;5032260;28;20463;-72
2021/06/02 08:35:18;;;;;;;14.85;9.55;;;;;;;-142.75;32.52;75176.84;5030261;28;20025;-72
2021/06/02 08:37:45;;;;;;;17.92;11.18;;;;;;;-142.75;34.88;75267.38;5029976;28;20023;-72
2021/06/02 08:40:13;;;;;;;14.82;9.80;;;;;;;-142.75;34.49;75113.88;5030754;28;20021;-73
2021/06/02 08:42:43;;;;;;;15.20;10.63;;;;;;;-142.75;34.00;75216.22;5012697;28;20041;-72
2021/06/02 08:45:10;;;;;;;16.55;10.38;;;;;;;-142.75;34.94;75231.94;5030350;28;20036;-73
2021/06/02 08:47:36;;;;;;;13.77;10.18;;;;;;;-142.75;34.06;75161.13;5012026;28;20100;-72
2021/06/02 08:50:01;;;;;;;17.95;10.07;;;;;;;-142.75;33.89;74989.91;5014430;28;20052;-73
2021/06/02 08:52:27;;;;;;;14.70;10.63;;;;;;;-142.75;31.82;75086.34;5012572;28;20025;-72
2021/06/02 08:54:54;;;;;;;15.38;10.02;;;;;;;-142.75;32.91;75161.13;5030377;28;20021;-73
2021/06/02 08:57:20;;;;;;;13.00;9.65;;;;;;;-142.75;34.03;75090.28;5029622;28;20064;-72
2021/06/02 08:59:45;;;;;;;14.93;9.30;;;;;;;-142.75;33.28;74952.53;5012802;28;20025;-73
2021/06/02 09:02:10;;;;;;;15.55;10.63;;;;;;;-142.75;32.81;75157.19;5030114;28;20057;-73
2021/06/02 09:04:36;;;;;;;13.77;10.43;;;;;;;-142.75;33.13;75194.56;5029739;28;20040;-72
2021/06/02 09:07:05;;;;;;;13.18;9.95;;;;;;;-142.75;33.75;75222.13;5011631;28;20033;-72
2021/06/02 09:09:31;;;;;;;14.00;9.68;;;;;;;-142.75;33.69;75192.59;5029874;28;20017;-71
2021/06/02 09:12:03;;;;;;;12.35;10.00;;;;;;;-142.75;33.72;75176.84;5030275;28;20032;-73
2021/06/02 09:14:31;;;;;;;14.00;10.13;;;;;;;-142.75;34.36;75259.50;5012004;28;20104;-73
2021/06/02 09:17:02;;;;;;;16.50;10.27;;;;;;;-142.75;35.20;75196.53;5029608;28;20021;-72
2021/06/02 09:19:47;;;;;;;13.05;10.40;;;;;;;-142.75;32.94;75076.50;5012595;28;20104;-72
2021/06/02 09:22:16;;;;;;;15.88;9.68;;;;;;;-142.75;32.40;75080.44;5030431;28;20037;-72
2021/06/02 09:24:58;;;;;;;15.85;10.57;;;;;;;-142.75;31.64;75043.03;5012045;28;20033;-73
2021/06/02 09:27:47;;;;;;;14.82;9.18;;;;;;;-142.75;31.17;74999.75;5030255;28;20522;-73
2021/06/02 09:30:20;;;;;;;13.55;8.93;;;;;;;-142.75;33.31;74928.91;5029746;28;20679;-72
2021/06/02 09:32:51;;;;;;;13.48;9.13;;;;;;;-142.75;30.46;74913.19;5017767;28;20029;-73
2021/06/02 09:35:17;;;;;;;13.40;9.63;;;;;;;-142.75;31.18;75084.38;5009854;28;20022;-71
2021/06/02 09:37:51;;;;;;;13.88;9.10;;;;;;;-142.75;33.16;75035.19;5009953;28;20025;-72
2021/06/02 09:40:37;;;;;;;14.43;9.15;;;;;;;-142.75;31.28;75039.13;5011032;28;20049;-73
2021/06/02 09:43:04;;;;;;;13.70;9.13;;;;;;;-142.75;32.52;74848.25;5013622;28;20075;-73
2021/06/02 09:45:29;;;;;;;12.25;8.13;;;;;;;-142.75;30.06;74645.59;5013865;28;20029;-73
2021/06/02 09:47:57;;;;;;;12.93;8.18;;;;;;;-142.75;29.03;74600.34;4995768;28;20301;-72
2021/06/02 09:50:33;;;;;;;11.63;8.70;;;;;;;-142.75;30.53;74696.75;5013333;28;20020;-73
2021/06/02 09:53:02;;;;;;;14.05;8.00;;;;;;;-142.75;30.08;74934.81;5013711;28;20110;-72
2021/06/02 09:55:35;;;;;;;13.63;7.97;;;;;;;-142.75;30.57;75068.63;5013113;28;20121;-72
2021/06/02 09:58:08;;;;;;;14.05;7.72;;;;;;;-142.75;30.50;74995.81;5013417;28;20108;-73
2021/06/02 10:00:36;;;;;;;12.90;9.18;;;;;;;-142.75;30.80;75025.34;5012111;28;20112;-72
2021/06/02 10:03:05;;;;;;;11.57;8.02;;;;;;;-142.75;31.23;74991.88;4995793;28;20021;-73
2021/06/02 10:05:36;;;;;;;10.73;7.00;;;;;;;-142.75;29.91;74911.22;4996775;28;20707;-72
2021/06/02 10:08:02;;;;;;;11.32;6.00;;;;;;;-142.75;30.73;74924.97;5013119;28;20030;-73
2021/06/02 10:10:28;;;;;;;11.43;7.63;;;;;;;-142.75;30.26;74984.00;4994591;28;20506;-72
2021/06/02 10:13:16;;;;;;;11.93;6.55;;;;;;;-142.75;29.56;74987.94;5012994;28;20021;-73
2021/06/02 10:15:46;;;;;;;8.32;6.07;;;;;;;-142.75;31.72;74962.38;5012408;28;20545;-74
2021/06/02 10:18:30;;;;;;;4.93;3.42;;;;;;;-142.75;28.79;74987.94;5013065;28;20028;-72
2021/06/02 10:21:03;;;;;;;7.63;3.00;;;;;;;-142.75;28.03;75086.34;5012814;28;20029;-73
2021/06/02 10:23:35;;;;;;;9.93;3.40;;;;;;;-142.75;28.34;75102.06;5012800;28;20040;-73
2021/06/02 10:26:02;;;;;;;5.05;4.18;;;;;;;-142.75;28.47;74982.03;5012643;28;20030;-72
2021/06/02 10:28:28;;;;;;;8.23;4.13;;;;;;;-142.75;28.37;74987.94;5012612;28;20065;-73
2021/06/02 10:30:53;;;;;;;9.82;4.57;;;;;;;-142.75;28.66;75098.16;5012407;28;20042;-72
2021/06/02 10:33:19;;;;;;;5.25;3.65;;;;;;;-142.75;28.72;75082.41;5012408;28;20014;-72
2021/06/02 10:35:44;;;;;;;6.45;3.10;;;;;;;-142.75;28.24;75074.53;5012296;28;20029;-73
2021/06/02 10:38:12;;;;;;;6.15;3.55;;;;;;;-142.75;28.73;75082.41;5012439;28;20026;-72
2021/06/02 10:40:40;;;;;;;6.28;3.15;;;;;;;-142.75;28.80;75109.94;5012285;28;20026;-72
2021/06/02 10:43:37;;;;;;;5.78;3.35;;;;;;;-142.75;28.51;75147.34;5012120;28;20034;-72
2021/06/02 10:46:07;;;;;;;7.03;3.08;;;;;;;-142.75;27.80;75013.53;5000385;28;20037;-72
2021/06/02 10:48:41;;;;;;;4.65;3.38;;;;;;;-142.75;28.25;75109.94;5013710;28;20032;-73
2021/06/02 10:51:07;;;;;;;7.70;3.10;;;;;;;-142.75;28.47;75086.34;5032081;28;20410;-72
2021/06/02 10:53:33;;;;;;;5.78;3.70;;;;;;;-142.75;28.01;75121.75;5013731;28;20021;-72
2021/06/02 10:55:59;;;;;;;5.35;3.05;;;;;;;-142.75;27.72;75127.66;5031529;28;20040;-74
2021/06/02 10:58:44;;;;;;;6.22;2.97;;;;;;;-142.75;29.35;75094.22;5014018;28;20549;-75
2021/06/02 11:01:18;;;;;;;6.38;3.40;;;;;;;-142.75;28.34;75082.41;5032119;28;20109;-75
2021/06/02 11:03:46;;;;;;;5.50;3.03;;;;;;;-142.75;27.17;75033.22;5032159;28;20159;-75
2021/06/02 11:06:14;;;;;;;5.80;3.28;;;;;;;-142.75;28.33;75133.56;5031138;28;20030;-74
2021/06/02 11:08:52;;;;;;;5.05;3.33;;;;;;;-142.75;27.61;75161.13;5013923;28;20470;-75
2021/06/02 11:11:37;;;;;;;6.05;3.33;;;;;;;-142.75;27.93;75141.44;5013599;28;20049;-75
2021/06/02 11:14:18;;;;;;;5.88;2.70;;;;;;;-142.75;28.13;75133.56;5031377;28;20036;-76
2021/06/02 11:16:53;;;;;;;4.70;2.92;;;;;;;-142.75;26.78;75123.72;5013113;28;20079;-75
2021/06/02 11:19:26;;;;;;;6.03;2.92;;;;;;;-142.75;27.68;75168.97;5048926;22;20048;-76
2021/06/02 11:21:54;;;;;;;4.90;3.30;;;;;;;-142.75;27.61;75190.63;5030755;28;20017;-76
2021/06/02 11:24:33;;;;;;;4.95;3.42;;;;;;;-142.75;27.07;75220.16;5031319;28;20036;-75
2021/06/02 11:27:14;;;;;;;6.07;3.00;;;;;;;-142.75;28.55;75184.72;5050457;28;20471;-76
2021/06/02 11:29:48;;;;;;;4.63;3.42;;;;;;;-142.75;28.47;75231.94;5051692;28;20071;-76
2021/06/02 11:32:15;;;;;;;4.78;3.50;;;;;;;-142.75;29.72;75212.28;5050513;28;20028;-76
2021/06/02 11:34:40;;;;;;;6.78;3.72;;;;;;;-142.75;27.06;75180.78;5050455;28;20048;-77
2021/06/02 11:37:07;;;;;;;6.60;3.47;;;;;;;-142.75;27.81;75231.94;5051465;28;20016;-76
2021/06/02 11:39:35;;;;;;;5.10;3.63;;;;;;;-142.75;28.27;75263.44;5033757;28;20108;-76
2021/06/02 11:42:00;;;;;;;9.52;3.50;;;;;;;-142.75;29.12;75231.94;5051664;28;20027;-77
2021/06/02 11:44:30;;;;;;;9.02;4.22;;;;;;;-142.75;27.89;75235.88;5032907;28;20017;-76
2021/06/02 11:46:55;;;;;;;11.18;4.35;;;;;;;-142.75;27.82;75285.09;5051262;28;20389;-77
2021/06/02 11:49:29;;;;;;;7.50;4.35;;;;;;;-142.75;30.46;75292.97;5051418;28;20024;-77